Search for airport 
image banner adimage banner adimage banner ad
image banner ad

KUCP - New Castle Muni

Located in New Castle, United States

ICAO - UCP, IATA -

Data provided by Airmate  

General information

Coordinates: N41°1'31" W80°24'48"
Elevation is 1070 feet MSL.
Magnetic variation is -09° East
View others Airports in Pennsylvania

Operational data

Special qualification required
Current time UTC:
Current local time:
Weather
METAR: KUCP 091356Z AUTO VRB03KT 5SM RA BR OVC018 04/03 A3001 RMK AO2 SLP186 P0012 T00440028
View NOTAMs / SUP AIP / TFR affecting this airport [VIEW]
Communications frequencies: [VIEW]

Runways:

RWY identifierQFULength (ft)Width (ft)SurfaceLDA (ft)
0539°399575ASPH
23219°399575ASPH
13118°2745100ASPH
31298°2745100ASPH

Airport contact information

Address: New Castle United States

Other aviation service providers

Flight schools

Haski Aviation, Inc.

Haski Aviation, Inc.

Satellite view of KUCP